Time;durP1;ratioP1;P1;durP2;ratioP2;P2;SDS_P1;SDS_P2;PMS_P1;PMS_P2;Temp;Humidity;BMP_temperature;BMP_pressure;BME280_temperature;BME280_humidity;BME280_pressure;Samples;Min_cycle;Max_cycle;Signal;HPM_P1;HPM_P2
2022/06/27 00:00:08;;;;;;;1.77;1.30;;;;;;;18.38;100.00;99431.25;348745;28;1621;-66
2022/06/27 00:00:20;;;;;;;3.10;1.25;;;;;;;18.42;100.00;99427.47;348061;28;1703;-66
2022/06/27 00:00:32;;;;;;;3.80;1.23;;;;;;;18.39;100.00;99432.09;347874;28;1107;-66
2022/06/27 00:00:44;;;;;;;2.85;1.20;;;;;;;18.39;100.00;99429.47;347870;28;1172;-66
2022/06/27 00:00:56;;;;;;;2.13;1.15;;;;;;;18.38;100.00;99427.78;347897;28;1373;-66
2022/06/27 00:01:08;;;;;;;2.33;1.15;;;;;;;18.38;100.00;99426.00;349324;28;1050;-66
2022/06/27 00:01:20;;;;;;;2.28;1.20;;;;;;;18.42;100.00;99426.63;349210;28;1149;-67
2022/06/27 00:01:33;;;;;;;2.28;1.38;;;;;;;18.42;100.00;99421.38;349070;28;1042;-66
2022/06/27 00:01:45;;;;;;;1.90;1.40;;;;;;;18.34;100.00;99427.16;348476;28;1517;-66
2022/06/27 00:01:57;;;;;;;3.08;1.42;;;;;;;18.36;100.00;99420.84;348663;28;1263;-66
2022/06/27 00:02:09;;;;;;;3.15;1.30;;;;;;;18.41;100.00;99414.41;348962;28;1060;-67
2022/06/27 00:02:21;;;;;;;4.00;1.30;;;;;;;18.44;100.00;99419.47;348881;28;1231;-67
2022/06/27 00:02:33;;;;;;;4.38;1.10;;;;;;;18.41;100.00;99424.94;348459;28;1339;-67
2022/06/27 00:02:46;;;;;;;3.03;0.90;;;;;;;18.44;100.00;99415.03;348879;28;1054;-66
2022/06/27 00:02:58;;;;;;;2.08;0.90;;;;;;;18.40;100.00;99412.75;348372;28;1180;-66
2022/06/27 00:03:10;;;;;;;1.88;1.00;;;;;;;18.42;100.00;99405.59;347417;28;1314;-66
2022/06/27 00:03:22;;;;;;;2.67;1.10;;;;;;;18.47;100.00;99408.72;347490;28;1047;-66
2022/06/27 00:03:34;;;;;;;4.75;1.20;;;;;;;18.50;100.00;99404.09;348335;28;4915;-67
2022/06/27 00:03:46;;;;;;;6.18;1.40;;;;;;;18.51;100.00;99402.28;348206;28;3894;-66
2022/06/27 00:03:58;;;;;;;4.60;1.33;;;;;;;18.46;100.00;99397.38;348204;28;1343;-66
2022/06/27 00:04:10;;;;;;;3.63;1.25;;;;;;;18.44;100.00;99398.44;349328;28;1140;-66
2022/06/27 00:04:23;;;;;;;2.53;1.20;;;;;;;18.44;100.00;99390.53;347773;28;6816;-67
2022/06/27 00:04:35;;;;;;;3.53;1.40;;;;;;;18.48;100.00;99395.47;347735;28;1062;-66
2022/06/27 00:04:47;;;;;;;4.72;1.42;;;;;;;18.53;100.00;99397.78;347781;28;1464;-66
2022/06/27 00:04:59;;;;;;;3.90;1.33;;;;;;;18.45;100.00;99390.44;347968;28;1067;-66
2022/06/27 00:05:11;;;;;;;5.03;1.20;;;;;;;18.46;100.00;99380.75;348071;28;1135;-67
2022/06/27 00:05:23;;;;;;;4.68;1.15;;;;;;;18.47;100.00;99390.31;348410;28;2166;-67
2022/06/27 00:05:35;;;;;;;4.93;1.20;;;;;;;18.48;100.00;99389.38;349146;28;6280;-67
2022/06/27 00:05:47;;;;;;;5.00;1.20;;;;;;;18.47;100.00;99387.66;347731;28;1192;-67
2022/06/27 00:05:59;;;;;;;4.55;1.20;;;;;;;18.44;100.00;99383.47;348490;28;1246;-67
2022/06/27 00:06:11;;;;;;;3.78;1.23;;;;;;;18.40;100.00;99386.44;349355;28;1057;-66
2022/06/27 00:06:23;;;;;;;2.83;1.15;;;;;;;18.42;100.00;99384.53;349288;28;1069;-66
2022/06/27 00:06:35;;;;;;;2.22;1.20;;;;;;;18.44;100.00;99386.09;349252;28;1061;-67
2022/06/27 00:06:47;;;;;;;2.20;1.20;;;;;;;18.47;100.00;99387.66;349262;28;1049;-67
2022/06/27 00:06:59;;;;;;;2.45;1.38;;;;;;;18.48;100.00;99386.72;348238;28;1058;-66
2022/06/27 00:07:11;;;;;;;2.15;1.40;;;;;;;18.44;100.00;99387.91;349248;28;1084;-67
2022/06/27 00:07:23;;;;;;;3.05;1.42;;;;;;;18.45;100.00;99384.31;348376;28;1609;-66
2022/06/27 00:07:35;;;;;;;4.28;1.40;;;;;;;18.48;100.00;99381.47;349149;28;1950;-66
2022/06/27 00:07:47;;;;;;;4.05;1.50;;;;;;;18.49;100.00;99381.38;349155;28;1120;-66
2022/06/27 00:07:59;;;;;;;4.97;1.60;;;;;;;18.50;100.00;99376.94;349401;28;1321;-66
2022/06/27 00:08:11;;;;;;;5.00;1.60;;;;;;;18.39;100.00;99385.59;349142;28;1187;-66
2022/06/27 00:08:23;;;;;;;4.35;1.33;;;;;;;18.41;100.00;99380.19;348054;28;2047;-66
2022/06/27 00:08:36;;;;;;;4.25;1.17;;;;;;;18.41;100.00;99378.44;349147;28;1286;-66
2022/06/27 00:08:48;;;;;;;3.05;1.10;;;;;;;18.42;100.00;99374.00;347917;28;1158;-66
2022/06/27 00:09:00;;;;;;;2.65;1.20;;;;;;;18.36;100.00;99376.09;348371;28;1345;-67
2022/06/27 00:09:12;;;;;;;2.65;1.45;;;;;;;18.40;100.00;99368.84;349277;28;1081;-66
2022/06/27 00:09:24;;;;;;;3.55;1.60;;;;;;;18.44;100.00;99367.69;349181;28;1033;-66
2022/06/27 00:09:36;;;;;;;3.80;1.70;;;;;;;18.46;100.00;99362.31;349168;28;1354;-66
2022/06/27 00:09:49;;;;;;;4.20;1.55;;;;;;;18.51;100.00;99363.69;349342;28;1069;-66
2022/06/27 00:10:01;;;;;;;4.72;1.45;;;;;;;18.47;100.00;99362.22;349296;28;1252;-66
2022/06/27 00:10:13;;;;;;;5.13;1.33;;;;;;;18.52;100.00;99365.34;349165;28;1231;-67
2022/06/27 00:10:25;;;;;;;4.15;1.40;;;;;;;18.53;100.00;99353.03;348115;28;1165;-67
2022/06/27 00:10:39;;;;;;;4.25;1.70;;;;;;;18.55;100.00;99359.03;349242;28;1086;-67
2022/06/27 00:10:51;;;;;;;3.30;1.80;;;;;;;18.53;100.00;99350.38;349149;28;1210;-68
2022/06/27 00:11:04;;;;;;;2.25;1.63;;;;;;;18.51;100.00;99352.28;349033;28;1315;-66
2022/06/27 00:11:17;;;;;;;4.00;1.60;;;;;;;18.57;100.00;99351.84;349193;28;1284;-67
2022/06/27 00:11:29;;;;;;;4.57;1.60;;;;;;;18.64;100.00;99357.56;349164;28;1112;-67
2022/06/27 00:11:41;;;;;;;4.25;1.52;;;;;;;18.60;100.00;99351.66;348923;28;1081;-66
2022/06/27 00:11:55;;;;;;;2.08;1.23;;;;;;;18.66;100.00;99345.94;348311;28;1995;-66
2022/06/27 00:12:08;;;;;;;2.80;1.20;;;;;;;18.65;100.00;99341.66;348992;28;1774;-66
2022/06/27 00:12:20;;;;;;;2.70;1.20;;;;;;;18.67;100.00;99334.50;348565;28;1050;-66
2022/06/27 00:12:32;;;;;;;2.38;1.10;;;;;;;18.66;100.00;99335.41;348145;28;1308;-66
2022/06/27 00:12:44;;;;;;;3.05;1.27;;;;;;;18.61;100.00;99329.63;349061;28;1339;-66
2022/06/27 00:12:56;;;;;;;3.15;1.30;;;;;;;18.62;100.00;99333.97;348836;28;1334;-67
2022/06/27 00:13:09;;;;;;;4.85;1.42;;;;;;;18.66;100.00;99331.97;348697;28;1040;-66
2022/06/27 00:13:21;;;;;;;6.05;1.58;;;;;;;18.65;100.00;99330.25;348667;28;1077;-66
2022/06/27 00:13:33;;;;;;;6.30;1.80;;;;;;;18.62;100.00;99328.69;348475;28;1779;-67
2022/06/27 00:13:45;;;;;;;4.63;1.55;;;;;;;18.49;100.00;99339.25;347729;28;1885;-66
2022/06/27 00:13:57;;;;;;;3.10;1.33;;;;;;;18.39;100.00;99332.09;348685;28;1726;-66
2022/06/27 00:14:09;;;;;;;2.20;1.13;;;;;;;18.44;100.00;99327.38;349320;28;1302;-66
2022/06/27 00:14:21;;;;;;;2.00;1.10;;;;;;;18.40;100.00;99331.16;349184;28;1111;-67
2022/06/27 00:14:35;;;;;;;2.67;1.20;;;;;;;18.29;100.00;99330.13;349197;28;1180;-66
2022/06/27 00:14:47;;;;;;;3.22;1.10;;;;;;;18.26;100.00;99322.44;349456;28;1072;-66
2022/06/27 00:15:00;;;;;;;3.75;1.17;;;;;;;18.29;100.00;99330.13;349091;28;1242;-66
2022/06/27 00:15:12;;;;;;;3.10;1.10;;;;;;;18.33;100.00;99326.34;348902;28;1081;-66
2022/06/27 00:15:24;;;;;;;3.75;1.10;;;;;;;18.35;100.00;99327.06;348960;28;1481;-67
2022/06/27 00:15:36;;;;;;;3.42;1.30;;;;;;;18.33;100.00;99323.69;348668;28;1929;-66
2022/06/27 00:15:48;;;;;;;2.33;1.20;;;;;;;18.32;100.00;99326.44;348772;28;1583;-66
2022/06/27 00:16:00;;;;;;;1.70;1.13;;;;;;;18.36;100.00;99323.47;349013;28;1272;-66
2022/06/27 00:16:26;;;;;;;2.83;1.42;;;;;;;18.48;100.00;99323.56;349085;28;1047;-67
2022/06/27 00:16:58;;;;;;;3.00;1.13;;;;;;;18.35;100.00;99320.94;348786;28;1143;-66
2022/06/27 00:17:10;;;;;;;2.33;1.10;;;;;;;18.42;100.00;99316.94;349175;28;1100;-66
2022/06/27 00:17:22;;;;;;;2.63;1.10;;;;;;;18.45;100.00;99321.13;349013;28;1239;-66
2022/06/27 00:17:34;;;;;;;2.50;1.20;;;;;;;18.50;100.00;99313.78;349068;28;1245;-66
2022/06/27 00:17:46;;;;;;;2.25;1.42;;;;;;;18.55;100.00;99322.16;349168;28;1058;-66
2022/06/27 00:17:59;;;;;;;3.78;1.70;;;;;;;18.58;100.00;99316.69;348965;28;1329;-66
2022/06/27 00:18:11;;;;;;;5.22;1.80;;;;;;;18.64;100.00;99316.25;348537;28;1655;-66
2022/06/27 00:18:23;;;;;;;4.18;1.70;;;;;;;18.65;100.00;99317.09;348679;28;1288;-67
2022/06/27 00:18:35;;;;;;;3.38;1.40;;;;;;;18.69;100.00;99324.69;348997;28;1220;-67
2022/06/27 00:18:47;;;;;;;5.60;1.63;;;;;;;18.68;100.00;99323.00;349131;28;1034;-66
2022/06/27 00:18:59;;;;;;;5.57;1.70;;;;;;;18.70;100.00;99325.53;349065;28;1299;-66
2022/06/27 00:19:11;;;;;;;4.82;1.48;;;;;;;18.69;100.00;99327.31;349186;28;1100;-66
2022/06/27 00:19:23;;;;;;;3.88;1.15;;;;;;;18.44;100.00;99330.00;348159;28;1944;-66
2022/06/27 00:19:35;;;;;;;3.22;1.10;;;;;;;18.42;100.00;99331.91;349118;28;1089;-66
2022/06/27 00:19:47;;;;;;;2.13;1.20;;;;;;;18.49;100.00;99333.13;349177;28;1272;-67
2022/06/27 00:19:59;;;;;;;2.40;1.25;;;;;;;18.51;100.00;99331.22;349153;28;1345;-66
2022/06/27 00:20:12;;;;;;;2.10;1.00;;;;;;;18.55;100.00;99324.81;349048;28;1184;-67
2022/06/27 00:20:24;;;;;;;2.10;0.90;;;;;;;18.56;100.00;99334.41;348923;28;1393;-66
2022/06/27 00:20:36;;;;;;;1.90;0.90;;;;;;;18.56;100.00;99329.13;349208;28;1237;-66
2022/06/27 00:20:48;;;;;;;2.92;1.10;;;;;;;18.53;99.93;99324.06;349183;28;1112;-66
2022/06/27 00:21:00;;;;;;;3.13;1.10;;;;;;;18.42;100.00;99326.63;349151;28;1346;-66
2022/06/27 00:21:12;;;;;;;3.10;1.10;;;;;;;18.47;100.00;99324.50;349150;28;1961;-66
2022/06/27 00:21:24;;;;;;;3.10;1.20;;;;;;;18.39;100.00;99321.56;349045;28;1172;-66
2022/06/27 00:21:36;;;;;;;3.17;1.15;;;;;;;18.26;100.00;99322.44;349178;28;1326;-66
2022/06/27 00:21:48;;;;;;;1.75;0.95;;;;;;;18.23;100.00;99322.66;348559;28;2133;-66
2022/06/27 00:22:00;;;;;;;2.55;0.98;;;;;;;18.19;100.00;99321.19;349090;28;1275;-66
2022/06/27 00:22:12;;;;;;;2.53;0.90;;;;;;;18.20;100.00;99322.88;349146;28;1100;-66
2022/06/27 00:22:26;;;;;;;2.53;0.80;;;;;;;18.07;100.00;99327.28;348949;28;1713;-66
2022/06/27 00:22:39;;;;;;;2.05;0.80;;;;;;;18.09;100.00;99320.13;349157;28;1278;-66
2022/06/27 00:22:53;;;;;;;1.85;0.90;;;;;;;18.13;100.00;99311.94;348389;28;2133;-66
2022/06/27 00:23:05;;;;;;;1.65;0.90;;;;;;;18.13;100.00;99326.88;348926;28;1557;-66
2022/06/27 00:23:17;;;;;;;2.25;1.00;;;;;;;18.19;100.00;99321.19;349237;28;1295;-66
2022/06/27 00:23:29;;;;;;;2.25;1.00;;;;;;;18.20;100.00;99317.59;348826;28;1460;-66
2022/06/27 00:23:44;;;;;;;3.17;1.00;;;;;;;18.23;100.00;99327.94;349079;28;978;-66
2022/06/27 00:23:56;;;;;;;2.25;0.90;;;;;;;18.29;100.00;99330.13;348990;28;1317;-66
2022/06/27 00:24:08;;;;;;;2.20;0.98;;;;;;;18.34;100.00;99325.38;349169;28;1251;-66
2022/06/27 00:24:20;;;;;;;3.17;1.10;;;;;;;18.29;100.00;99332.75;348758;28;3217;-66
2022/06/27 00:24:32;;;;;;;2.60;1.10;;;;;;;18.33;100.00;99334.22;348564;28;6677;-66
2022/06/27 00:24:45;;;;;;;2.63;0.93;;;;;;;18.32;100.00;99327.28;347759;28;1264;-66
2022/06/27 00:24:57;;;;;;;2.38;0.93;;;;;;;18.35;100.00;99329.69;348132;28;1219;-66
2022/06/27 00:25:10;;;;;;;2.30;0.98;;;;;;;18.36;100.00;99328.72;347857;28;7169;-66
2022/06/27 00:25:22;;;;;;;1.65;0.85;;;;;;;18.34;100.00;99328.00;347939;28;1164;-66
2022/06/27 00:25:34;;;;;;;1.95;0.80;;;;;;;18.31;100.00;99328.22;347758;28;1074;-66
2022/06/27 00:25:46;;;;;;;2.35;0.70;;;;;;;18.21;100.00;99324.56;347810;28;1060;-66
2022/06/27 00:25:58;;;;;;;1.88;0.70;;;;;;;18.19;100.00;99322.97;347860;28;1639;-66
2022/06/27 00:26:11;;;;;;;2.33;0.80;;;;;;;18.19;100.00;99326.47;348847;28;1415;-66
2022/06/27 00:26:23;;;;;;;1.95;0.90;;;;;;;18.24;100.00;99318.25;347895;28;3148;-66
2022/06/27 00:26:35;;;;;;;1.88;0.95;;;;;;;18.28;100.00;99330.22;348563;28;1861;-66
2022/06/27 00:26:48;;;;;;;3.05;1.10;;;;;;;18.31;100.00;99320.34;349041;28;1067;-66
2022/06/27 00:27:00;;;;;;;3.67;1.10;;;;;;;18.20;100.00;99328.13;348128;28;1298;-67
2022/06/27 00:27:12;;;;;;;2.38;0.82;;;;;;;18.25;100.00;99326.03;347490;28;1056;-67
2022/06/27 00:27:24;;;;;;;2.25;0.75;;;;;;;18.31;100.00;99324.75;347430;28;1113;-66
2022/06/27 00:27:36;;;;;;;3.47;0.80;;;;;;;18.34;100.00;99325.38;347439;28;1387;-66
2022/06/27 00:27:48;;;;;;;4.45;1.00;;;;;;;18.39;100.00;99332.09;348329;28;1240;-66
2022/06/27 00:28:00;;;;;;;3.00;0.88;;;;;;;18.32;100.00;99327.28;348922;28;1276;-66
2022/06/27 00:28:12;;;;;;;2.50;0.73;;;;;;;18.40;100.00;99329.38;348768;28;1127;-66
2022/06/27 00:28:24;;;;;;;1.60;0.70;;;;;;;18.41;100.00;99336.31;348621;28;1290;-66
2022/06/27 00:28:37;;;;;;;1.83;0.73;;;;;;;18.41;100.00;99336.31;349074;28;1050;-67
2022/06/27 00:28:49;;;;;;;1.77;0.80;;;;;;;18.39;100.00;99337.38;348647;28;2014;-67
2022/06/27 00:29:01;;;;;;;1.35;0.77;;;;;;;18.32;98.80;99336.97;348638;28;2003;-66
2022/06/27 00:29:13;;;;;;;1.67;0.60;;;;;;;18.35;99.18;99334.97;349066;28;1267;-67
2022/06/27 00:29:25;;;;;;;2.90;0.70;;;;;;;18.35;99.02;99339.34;349127;28;1153;-67
2022/06/27 00:29:37;;;;;;;2.92;0.68;;;;;;;18.30;98.11;99338.84;349356;28;1202;-67
2022/06/27 00:29:49;;;;;;;2.67;0.68;;;;;;;18.35;98.58;99337.59;348609;28;1402;-67
2022/06/27 00:30:01;;;;;;;1.85;0.52;;;;;;;18.33;99.54;99339.50;349222;28;1291;-67
2022/06/27 00:30:14;;;;;;;1.20;0.60;;;;;;;18.33;99.74;99343.88;349070;28;1093;-67
2022/06/27 00:30:26;;;;;;;1.20;0.68;;;;;;;18.33;99.31;99339.50;347901;28;5716;-67
2022/06/27 00:30:38;;;;;;;1.05;0.68;;;;;;;18.30;99.23;99344.13;347753;28;1286;-66
2022/06/27 00:30:50;;;;;;;1.02;0.63;;;;;;;18.33;99.99;99346.53;347955;28;1098;-67
2022/06/27 00:31:02;;;;;;;1.27;0.70;;;;;;;18.35;100.00;99347.25;348472;28;1256;-67
2022/06/27 00:31:14;;;;;;;6.60;0.77;;;;;;;18.40;100.00;99349.59;349328;28;1104;-67
2022/06/27 00:31:26;;;;;;;10.60;0.90;;;;;;;18.40;100.00;99346.94;349273;28;1250;-67
2022/06/27 00:31:38;;;;;;;11.07;0.90;;;;;;;18.26;99.71;99345.28;348912;28;1220;-66
2022/06/27 00:31:50;;;;;;;1.45;0.60;;;;;;;18.26;99.22;99359.28;348518;28;1553;-66
2022/06/27 00:32:03;;;;;;;1.35;0.60;;;;;;;18.34;99.58;99350.84;348662;28;1228;-66
2022/06/27 00:32:16;;;;;;;0.88;0.50;;;;;;;18.36;99.61;99355.06;348935;28;1097;-66
2022/06/27 00:32:29;;;;;;;0.93;0.50;;;;;;;18.39;100.00;99356.66;348283;28;1788;-66
2022/06/27 00:32:41;;;;;;;1.35;0.60;;;;;;;18.42;100.00;99363.47;348826;28;1109;-67
2022/06/27 00:32:54;;;;;;;2.28;0.70;;;;;;;18.46;100.00;99359.69;349112;28;1057;-66
2022/06/27 00:33:05;;;;;;;2.80;0.80;;;;;;;18.48;100.00;99358.63;347631;28;1147;-67
2022/06/27 00:33:18;;;;;;;2.47;0.90;;;;;;;18.52;100.00;99359.25;347548;28;1034;-66
2022/06/27 00:33:30;;;;;;;1.42;0.80;;;;;;;18.41;100.00;99367.91;347554;28;1132;-66
2022/06/27 00:33:42;;;;;;;2.17;0.70;;;;;;;18.44;100.00;99366.84;347223;28;2133;-66
2022/06/27 00:33:54;;;;;;;2.58;0.70;;;;;;;18.47;100.00;99371.88;348935;28;1836;-66
2022/06/27 00:34:06;;;;;;;2.13;0.60;;;;;;;18.49;99.95;99368.22;347898;28;1096;-66
2022/06/27 00:34:18;;;;;;;0.60;0.50;;;;;;;18.49;99.45;99370.84;348797;28;1153;-67
2022/06/27 00:34:30;;;;;;;0.73;0.60;;;;;;;18.49;98.94;99385.78;349234;28;1255;-67
2022/06/27 00:34:42;;;;;;;1.52;0.70;;;;;;;18.44;98.84;99367.69;349219;28;1112;-66
2022/06/27 00:34:54;;;;;;;1.92;0.70;;;;;;;18.45;98.80;99379.03;349299;28;1108;-66
2022/06/27 00:35:07;;;;;;;2.45;0.70;;;;;;;18.43;99.45;99378.31;347932;28;1272;-66
2022/06/27 00:35:19;;;;;;;1.80;0.60;;;;;;;18.45;99.73;99373.78;348058;28;1983;-66
2022/06/27 00:35:32;;;;;;;1.48;0.75;;;;;;;18.47;100.00;99371.88;349269;28;1286;-66
2022/06/27 00:35:44;;;;;;;1.70;0.80;;;;;;;18.51;100.00;99378.59;349304;28;1180;-66
2022/06/27 00:35:56;;;;;;;3.08;1.00;;;;;;;18.53;100.00;99374.06;349066;28;1192;-67
2022/06/27 00:36:08;;;;;;;4.15;1.10;;;;;;;18.56;100.00;99376.50;349205;28;1195;-66
2022/06/27 00:36:20;;;;;;;3.83;1.10;;;;;;;18.58;100.00;99374.63;349350;28;1155;-66
2022/06/27 00:36:32;;;;;;;3.00;1.00;;;;;;;18.60;100.00;99372.72;349061;28;1057;-67
2022/06/27 00:36:44;;;;;;;1.73;0.90;;;;;;;18.63;100.00;99367.22;349010;28;1041;-67
2022/06/27 00:36:56;;;;;;;1.48;0.73;;;;;;;18.67;100.00;99376.59;349205;28;1321;-66
2022/06/27 00:37:08;;;;;;;1.88;0.60;;;;;;;18.60;100.00;99380.59;349307;28;1138;-66
2022/06/27 00:37:20;;;;;;;2.90;0.60;;;;;;;18.58;99.69;99385.13;349088;28;1038;-66
2022/06/27 00:37:33;;;;;;;2.75;0.70;;;;;;;18.55;98.35;99380.94;349060;28;1468;-66
2022/06/27 00:37:44;;;;;;;1.55;0.70;;;;;;;18.53;97.98;99384.59;349338;28;1152;-66
2022/06/27 00:37:56;;;;;;;1.77;0.60;;;;;;;18.50;97.37;99390.09;349145;28;1405;-66
2022/06/27 00:38:08;;;;;;;2.80;0.50;;;;;;;18.53;97.63;99388.09;349301;28;1152;-66
2022/06/27 00:38:20;;;;;;;2.95;0.60;;;;;;;18.54;98.06;99383.69;348238;28;2184;-66
2022/06/27 00:38:32;;;;;;;2.83;0.57;;;;;;;18.55;97.79;99395.88;348333;28;1558;-66
2022/06/27 00:38:44;;;;;;;1.38;0.52;;;;;;;18.57;97.78;99388.72;349018;28;1268;-67
2022/06/27 00:38:56;;;;;;;1.48;0.52;;;;;;;18.57;97.92;99393.97;348997;28;1419;-66
2022/06/27 00:39:08;;;;;;;1.55;0.60;;;;;;;18.59;98.34;99391.25;348913;28;1271;-67
2022/06/27 00:39:20;;;;;;;1.73;0.70;;;;;;;18.58;98.45;99390.41;349434;28;1630;-66
2022/06/27 00:39:32;;;;;;;2.38;0.70;;;;;;;18.61;98.97;99384.91;349265;28;1307;-66
2022/06/27 00:39:44;;;;;;;1.98;0.70;;;;;;;18.66;99.35;99390.72;349217;28;1026;-66
2022/06/27 00:39:56;;;;;;;1.50;0.77;;;;;;;18.70;99.98;99388.72;349103;28;1208;-66
2022/06/27 00:40:09;;;;;;;1.50;0.90;;;;;;;18.69;100.00;99397.53;349137;28;1199;-66
2022/06/27 00:40:21;;;;;;;1.92;0.90;;;;;;;18.58;99.28;99390.41;349060;28;1901;-66
2022/06/27 00:40:33;;;;;;;1.92;0.77;;;;;;;18.44;98.44;99394.00;349041;28;1050;-66
2022/06/27 00:40:45;;;;;;;2.28;0.60;;;;;;;18.44;98.27;99398.44;349161;28;1168;-66
2022/06/27 00:40:58;;;;;;;2.80;0.60;;;;;;;18.45;98.28;99394.81;348859;28;1309;-66
2022/06/27 00:41:10;;;;;;;2.67;0.73;;;;;;;18.49;98.59;99393.66;349103;28;1069;-66
2022/06/27 00:41:22;;;;;;;1.88;0.80;;;;;;;18.54;99.40;99381.03;349150;28;1093;-66
2022/06/27 00:41:34;;;;;;;2.55;0.80;;;;;;;18.57;100.00;99388.72;349024;28;1086;-66
2022/06/27 00:41:46;;;;;;;2.00;0.75;;;;;;;18.64;100.00;99389.13;349141;28;1049;-66
2022/06/27 00:41:58;;;;;;;1.40;0.90;;;;;;;18.68;100.00;99391.44;349161;28;1318;-66
2022/06/27 00:42:10;;;;;;;2.15;0.93;;;;;;;18.72;100.00;99392.06;349005;28;1032;-66
2022/06/27 00:42:22;;;;;;;2.55;0.90;;;;;;;18.75;100.00;99387.44;348981;28;1015;-66
2022/06/27 00:42:35;;;;;;;2.55;0.90;;;;;;;18.81;100.00;99390.59;348741;28;1162;-66
2022/06/27 00:42:47;;;;;;;1.95;0.80;;;;;;;18.83;100.00;99388.69;347401;28;1936;-66
2022/06/27 00:42:59;;;;;;;1.75;0.80;;;;;;;18.84;100.00;99387.75;348092;28;1761;-66
2022/06/27 00:43:11;;;;;;;1.27;0.80;;;;;;;18.78;99.38;99389.00;349184;28;1993;-66
2022/06/27 00:43:24;;;;;;;1.00;0.65;;;;;;;18.71;98.40;99391.25;349256;28;1034;-66
2022/06/27 00:43:36;;;;;;;1.52;0.60;;;;;;;18.75;98.89;99397.97;349217;28;1206;-66
2022/06/27 00:43:48;;;;;;;2.45;0.75;;;;;;;18.77;100.00;99393.44;349277;28;1587;-67
2022/06/27 00:44:00;;;;;;;2.75;0.90;;;;;;;18.83;100.00;99393.97;348795;28;1232;-66
2022/06/27 00:44:32;;;;;;;2.67;0.93;;;;;;;18.91;100.00;99396.91;349317;28;1100;-66
2022/06/27 00:44:44;;;;;;;3.30;0.90;;;;;;;18.94;100.00;99392.25;349266;28;1114;-66
2022/06/27 00:44:56;;;;;;;2.88;0.90;;;;;;;18.96;100.00;99398.25;348894;28;1283;-66
2022/06/27 00:45:08;;;;;;;2.50;0.98;;;;;;;19.00;100.00;99396.25;349294;28;925;-66
2022/06/27 00:45:20;;;;;;;1.80;0.85;;;;;;;19.04;100.00;99402.16;349261;28;1026;-66
2022/06/27 00:45:32;;;;;;;1.55;0.73;;;;;;;19.03;100.00;99400.44;349202;28;1248;-66
2022/06/27 00:45:45;;;;;;;1.70;0.70;;;;;;;18.99;99.77;99399.00;349313;28;1084;-66
2022/06/27 00:45:57;;;;;;;1.70;0.70;;;;;;;19.00;99.48;99401.53;349206;28;1141;-66
2022/06/27 00:46:10;;;;;;;2.13;0.80;;;;;;;19.02;99.33;99404.88;349271;28;1069;-66
2022/06/27 00:46:22;;;;;;;2.13;0.70;;;;;;;19.04;99.07;99402.97;349018;28;1323;-66
2022/06/27 00:46:34;;;;;;;1.30;0.68;;;;;;;19.06;99.12;99400.25;349242;28;1054;-66
2022/06/27 00:46:46;;;;;;;1.30;0.70;;;;;;;19.08;99.46;99399.19;349293;28;1179;-66
2022/06/27 00:46:58;;;;;;;1.20;0.75;;;;;;;19.10;99.05;99397.28;349152;28;1050;-66
2022/06/27 00:47:12;;;;;;;1.60;0.90;;;;;;;19.12;99.08;99400.63;348394;28;1987;-66
2022/06/27 00:47:24;;;;;;;2.00;0.90;;;;;;;19.15;99.16;99400.41;347747;28;1111;-66
2022/06/27 00:47:36;;;;;;;1.80;0.90;;;;;;;19.16;99.40;99398.63;347589;28;1343;-66
2022/06/27 00:47:50;;;;;;;2.08;1.00;;;;;;;19.17;99.75;99397.66;347599;28;1040;-66
2022/06/27 00:48:02;;;;;;;2.00;1.02;;;;;;;19.18;100.00;99399.34;348639;28;1275;-66
2022/06/27 00:48:14;;;;;;;2.85;1.00;;;;;;;19.20;100.00;99401.88;349107;28;1081;-66
2022/06/27 00:48:26;;;;;;;2.65;1.00;;;;;;;19.20;100.00;99401.88;349005;28;1334;-66
2022/06/27 00:48:38;;;;;;;1.45;0.80;;;;;;;19.23;100.00;99404.28;349174;28;1238;-66
2022/06/27 00:48:50;;;;;;;1.92;0.88;;;;;;;19.24;100.00;99405.97;349174;28;1324;-66
2022/06/27 00:49:02;;;;;;;2.95;1.10;;;;;;;19.27;100.00;99403.09;349152;28;1261;-66
2022/06/27 00:49:14;;;;;;;3.40;1.20;;;;;;;19.28;100.00;99405.63;349149;28;1104;-66
2022/06/27 00:49:26;;;;;;;2.25;1.00;;;;;;;19.30;100.00;99408.16;349242;28;1048;-66
2022/06/27 00:49:39;;;;;;;1.90;1.10;;;;;;;19.30;100.00;99403.72;349325;28;1221;-66
2022/06/27 00:49:50;;;;;;;1.92;1.00;;;;;;;19.29;100.00;99406.47;349313;28;1034;-66
2022/06/27 00:50:05;;;;;;;2.42;1.10;;;;;;;19.30;100.00;99408.16;348440;28;2013;-66
2022/06/27 00:50:17;;;;;;;3.85;1.33;;;;;;;19.31;100.00;99410.66;347747;28;1295;-66
2022/06/27 00:50:29;;;;;;;3.70;1.50;;;;;;;19.33;100.00;99406.13;348551;28;1173;-66
2022/06/27 00:50:41;;;;;;;2.88;1.45;;;;;;;19.35;100.00;99401.59;349310;28;1057;-66
2022/06/27 00:50:54;;;;;;;4.45;1.50;;;;;;;19.38;100.00;99405.81;349226;28;1040;-66
2022/06/27 00:51:06;;;;;;;5.60;1.50;;;;;;;19.39;100.00;99404.00;349269;28;1321;-66
2022/06/27 00:51:18;;;;;;;4.35;1.40;;;;;;;19.40;100.00;99409.19;349153;28;1238;-66
2022/06/27 00:51:31;;;;;;;4.18;1.50;;;;;;;19.40;100.00;99408.31;349219;28;1089;-66
2022/06/27 00:51:43;;;;;;;4.28;1.40;;;;;;;19.42;100.00;99407.28;349199;28;1218;-66
2022/06/27 00:51:55;;;;;;;3.85;1.00;;;;;;;19.44;100.00;99413.28;349140;28;1105;-66
2022/06/27 00:52:10;;;;;;;3.20;0.70;;;;;;;19.46;100.00;99414.00;349017;28;1261;-66
2022/06/27 00:52:22;;;;;;;1.30;0.50;;;;;;;19.46;100.00;99414.00;349201;28;1054;-66
2022/06/27 00:52:35;;;;;;;0.75;0.50;;;;;;;19.46;99.60;99411.38;348788;28;1226;-66
2022/06/27 00:52:48;;;;;;;1.75;0.65;;;;;;;19.46;99.13;99416.63;348921;28;1264;-66
2022/06/27 00:53:00;;;;;;;2.15;0.60;;;;;;;19.46;98.71;99413.16;348927;28;1420;-66
2022/06/27 00:53:12;;;;;;;2.75;0.70;;;;;;;19.44;98.02;99417.72;348967;28;1237;-66
2022/06/27 00:53:24;;;;;;;1.77;0.70;;;;;;;19.43;97.56;99414.22;348999;28;1097;-66
2022/06/27 00:53:37;;;;;;;1.98;0.77;;;;;;;19.43;97.86;99414.22;348842;28;1272;-67
2022/06/27 00:53:54;;;;;;;2.50;0.80;;;;;;;19.43;98.29;99414.22;348590;28;1647;-66
2022/06/27 00:54:05;;;;;;;2.15;0.70;;;;;;;19.44;98.40;99421.19;347729;28;1093;-67
2022/06/27 00:54:18;;;;;;;1.50;0.60;;;;;;;19.46;98.90;99419.28;347656;28;1061;-67
2022/06/27 00:54:30;;;;;;;2.00;0.70;;;;;;;19.45;98.83;99422.84;347590;28;1215;-66
2022/06/27 00:54:45;;;;;;;1.98;0.82;;;;;;;19.45;98.76;99422.84;347727;28;1060;-66
2022/06/27 00:54:57;;;;;;;3.55;1.00;;;;;;;19.46;99.07;99421.06;347922;28;1246;-67
2022/06/27 00:55:09;;;;;;;3.85;1.00;;;;;;;19.47;99.63;99423.56;349303;28;1049;-66
2022/06/27 00:55:21;;;;;;;3.40;1.00;;;;;;;19.48;99.86;99419.16;349105;28;1310;-67
2022/06/27 00:55:33;;;;;;;2.88;1.20;;;;;;;19.48;100.00;99427.91;349232;28;1271;-66
2022/06/27 00:55:46;;;;;;;4.43;1.38;;;;;;;19.49;100.00;99428.75;349331;28;1331;-66
2022/06/27 00:55:58;;;;;;;5.10;1.50;;;;;;;19.49;100.00;99429.56;349096;28;1348;-66
2022/06/27 00:56:10;;;;;;;3.30;1.40;;;;;;;19.52;100.00;99425.91;349145;28;1092;-66
2022/06/27 00:56:23;;;;;;;2.60;1.15;;;;;;;19.52;100.00;99434.63;349198;28;1160;-66
2022/06/27 00:56:35;;;;;;;1.60;0.85;;;;;;;19.51;98.77;99432.94;349188;28;1276;-66
2022/06/27 00:56:47;;;;;;;1.92;0.70;;;;;;;19.50;97.82;99431.28;349009;28;1200;-67
2022/06/27 00:56:59;;;;;;;1.95;0.70;;;;;;;19.49;97.69;99434.00;349090;28;1292;-67
2022/06/27 00:57:12;;;;;;;1.42;0.60;;;;;;;19.42;96.54;99428.34;348993;28;1065;-66
2022/06/27 00:57:24;;;;;;;1.35;0.60;;;;;;;19.38;95.73;99431.31;347940;28;2144;-66
2022/06/27 00:57:37;;;;;;;0.95;0.60;;;;;;;19.32;95.73;99437.88;347655;28;1840;-66
2022/06/27 00:57:50;;;;;;;0.82;0.57;;;;;;;19.31;96.31;99436.19;347407;28;1243;-67
2022/06/27 00:58:02;;;;;;;1.60;0.70;;;;;;;19.34;96.56;99441.25;347449;28;1527;-67
2022/06/27 00:58:14;;;;;;;2.25;0.70;;;;;;;19.33;96.00;99439.56;347517;28;1101;-67
2022/06/27 00:58:26;;;;;;;1.98;0.60;;;;;;;19.32;95.86;99444.00;347353;28;1203;-66
2022/06/27 00:58:38;;;;;;;1.00;0.60;;;;;;;19.31;95.67;99446.72;348905;28;1424;-66
2022/06/27 00:58:50;;;;;;;1.55;0.60;;;;;;;19.28;95.43;99447.81;348959;28;1225;-66
2022/06/27 00:59:02;;;;;;;2.00;0.60;;;;;;;19.25;95.52;99453.28;349184;28;1330;-67
2022/06/27 00:59:14;;;;;;;2.53;0.60;;;;;;;19.25;95.32;99445.38;349292;28;1111;-66
2022/06/27 00:59:26;;;;;;;2.83;0.52;;;;;;;19.24;95.44;99453.41;349171;28;1123;-66